createdAt,value
2018-04-28T17:05:38.233Z,23.00
2018-04-28T17:08:06.530Z,22.90
2018-04-28T17:17:05.685Z,24.80
2018-04-28T17:19:31.272Z,24.40
2018-04-28T17:21:58.761Z,23.10
2018-04-28T17:27:33.652Z,20.40
2018-04-28T17:36:16.249Z,16.90
2018-04-28T17:38:43.809Z,16.20
2018-04-28T17:41:11.437Z,15.80
2018-04-28T17:43:39.014Z,15.40
2018-04-28T17:46:06.658Z,15.10
2018-04-28T17:48:34.221Z,14.90
2018-04-28T17:51:02.327Z,14.60
2018-04-28T17:53:29.900Z,14.40
2018-04-28T17:55:57.550Z,14.20
2018-04-28T17:58:25.114Z,14.00
2018-04-28T18:00:52.721Z,13.80
2018-04-28T18:03:26.221Z,13.60
2018-04-28T18:05:56.155Z,13.50
2018-04-28T18:08:21.516Z,13.40
2018-04-28T18:10:49.191Z,13.30
2018-04-28T18:13:16.817Z,13.20
2018-04-28T18:15:44.382Z,13.10
2018-04-28T18:18:11.935Z,13.00
2018-04-28T18:20:40.488Z,12.80
2018-04-28T18:23:09.067Z,12.70
2018-04-28T18:25:36.746Z,12.70
2018-04-28T18:28:04.435Z,12.60
2018-04-28T18:30:32.776Z,12.50
2018-04-28T18:33:00.357Z,12.50
2018-04-28T18:35:34.173Z,12.50
2018-04-28T18:38:01.878Z,12.50
2018-04-28T18:40:29.483Z,12.50
2018-04-28T18:42:57.135Z,12.40
2018-04-28T18:45:25.991Z,12.40
2018-04-28T18:47:52.306Z,12.20
2018-04-28T18:50:19.962Z,12.10
2018-04-28T18:52:47.553Z,12.00
2018-04-28T18:55:15.309Z,11.90
2018-04-28T18:57:42.957Z,11.80
2018-04-28T19:00:10.511Z,11.80
2018-04-28T19:02:38.202Z,11.80
2018-04-28T19:05:05.891Z,11.80
2018-04-28T19:07:34.220Z,11.70
2018-04-28T19:10:01.888Z,11.60
2018-04-28T19:12:29.512Z,11.50
2018-04-28T19:14:57.113Z,11.40
2018-04-28T19:17:24.704Z,11.40
2018-04-28T19:19:55.059Z,11.40
2018-04-28T19:22:22.884Z,11.40
2018-04-28T19:24:50.497Z,11.40
2018-04-28T19:27:18.076Z,11.30
2018-04-28T19:29:45.732Z,11.20
2018-04-28T19:32:13.360Z,11.20
2018-04-28T19:34:41.111Z,11.10
2018-04-28T19:37:08.810Z,11.10
2018-04-28T19:39:36.439Z,11.00
2018-04-28T19:42:04.083Z,10.90
2018-04-28T19:44:32.496Z,10.80
2018-04-28T19:47:00.185Z,10.80
2018-04-28T19:49:27.808Z,10.80
2018-04-28T19:51:55.488Z,10.70
2018-04-28T19:54:26.026Z,10.60
2018-04-28T19:56:51.038Z,10.50
2018-04-28T19:59:23.599Z,10.50
2018-04-28T21:00:36.336Z,9.30
2018-04-28T21:03:02.796Z,10.20
2018-04-28T21:05:30.363Z,10.10
2018-04-28T21:07:58.765Z,9.70
2018-04-28T21:10:26.348Z,9.70
2018-04-28T21:12:53.942Z,9.60
2018-04-28T21:15:21.595Z,9.30
2018-04-28T21:17:49.189Z,9.20
2018-04-28T21:20:16.748Z,9.00
2018-04-28T21:22:46.507Z,8.90
2018-04-28T21:25:14.111Z,8.90
2018-04-28T21:27:41.674Z,8.80
2018-04-28T21:30:09.301Z,8.70
2018-04-28T21:32:36.880Z,8.60
2018-04-28T21:35:04.459Z,8.50
2018-04-28T21:37:33.324Z,8.50
2018-04-28T21:40:00.916Z,8.40
2018-04-28T21:42:29.253Z,8.50
2018-04-28T21:44:56.850Z,8.50
2018-04-28T21:47:24.786Z,8.50
2018-04-28T21:49:52.373Z,8.40
2018-04-28T21:52:19.980Z,8.30
2018-04-28T21:54:47.536Z,8.20
2018-04-28T21:57:15.088Z,8.10
2018-04-28T21:59:43.456Z,7.90
2018-04-28T22:02:11.823Z,7.80
2018-04-28T22:04:39.323Z,7.80
2018-04-28T22:07:06.903Z,7.80
2018-04-28T22:09:34.462Z,7.70
2018-04-28T22:12:02.014Z,7.60
2018-04-28T22:14:29.635Z,7.60
2018-04-28T22:16:57.988Z,7.50
2018-04-28T22:19:25.555Z,7.50
2018-04-28T22:21:53.149Z,7.50
2018-04-28T22:24:21.492Z,7.60
2018-04-28T22:26:49.063Z,7.50
2018-04-28T22:29:16.648Z,7.50
2018-04-28T22:31:44.991Z,7.40
2018-04-28T22:34:12.561Z,7.40
2018-04-28T22:36:40.177Z,7.40
2018-04-28T22:39:07.743Z,7.30
2018-04-28T22:41:35.388Z,7.20
2018-04-28T22:44:02.928Z,7.20
2018-04-28T22:46:31.266Z,7.10
2018-04-28T22:48:58.823Z,7.10
2018-04-28T22:51:26.445Z,7.10
2018-04-28T22:53:54.026Z,7.10
2018-04-28T22:56:21.616Z,7.20
2018-04-28T22:58:49.217Z,7.20
2018-04-28T23:01:17.546Z,7.30
2018-04-28T23:03:45.103Z,7.30
2018-04-28T23:06:12.709Z,7.30
2018-04-28T23:08:40.287Z,7.40
2018-04-28T23:11:07.844Z,7.40
2018-04-28T23:13:36.231Z,7.40
2018-04-28T23:16:03.801Z,7.40
2018-04-28T23:18:32.144Z,7.50
2018-04-28T23:21:00.318Z,7.50
2018-04-28T23:23:27.891Z,7.60
2018-04-28T23:25:55.478Z,7.70
2018-04-28T23:28:23.106Z,8.00
2018-04-28T23:30:50.709Z,8.20
2018-04-28T23:33:19.044Z,8.20
2018-04-28T23:35:46.775Z,8.20
2018-04-28T23:38:14.308Z,8.10
2018-04-28T23:40:44.738Z,8.00
2018-04-28T23:43:12.422Z,8.00
2018-04-28T23:45:40.105Z,7.90
2018-04-28T23:48:14.949Z,7.80
2018-04-28T23:50:44.611Z,7.70
2018-04-28T23:53:22.387Z,7.70
2018-04-28T23:55:54.564Z,7.70
2018-04-28T23:58:24.883Z,7.60
